sensor_id;sensor_type;location;lat;lon;timestamp;P1;durP1;ratioP1;P2;durP2;ratioP2
22665;SDS011;11499;49.486;11.104;2022-09-21T00:01:47;7.77;;;5.20;;
22665;SDS011;11499;49.486;11.104;2022-09-21T00:07:14;5.53;;;5.03;;
22665;SDS011;11499;49.486;11.104;2022-09-21T00:09:39;6.57;;;5.10;;
22665;SDS011;11499;49.486;11.104;2022-09-21T00:12:04;4.93;;;4.43;;
22665;SDS011;11499;49.486;11.104;2022-09-21T00:14:30;5.90;;;5.00;;
22665;SDS011;11499;49.486;11.104;2022-09-21T00:16:56;4.73;;;4.10;;
22665;SDS011;11499;49.486;11.104;2022-09-21T00:19:21;4.67;;;4.27;;
22665;SDS011;11499;49.486;11.104;2022-09-21T00:21:47;5.07;;;4.20;;
22665;SDS011;11499;49.486;11.104;2022-09-21T00:24:12;5.77;;;4.97;;
22665;SDS011;11499;49.486;11.104;2022-09-21T00:26:38;6.30;;;4.30;;
22665;SDS011;11499;49.486;11.104;2022-09-21T00:29:04;5.37;;;4.13;;
22665;SDS011;11499;49.486;11.104;2022-09-21T00:34:26;4.60;;;3.97;;
22665;SDS011;11499;49.486;11.104;2022-09-21T00:36:52;4.80;;;3.63;;
22665;SDS011;11499;49.486;11.104;2022-09-21T00:39:17;3.97;;;3.57;;
22665;SDS011;11499;49.486;11.104;2022-09-21T00:41:43;5.30;;;3.60;;
22665;SDS011;11499;49.486;11.104;2022-09-21T00:44:19;3.90;;;3.50;;
22665;SDS011;11499;49.486;11.104;2022-09-21T00:47:04;3.67;;;3.07;;
22665;SDS011;11499;49.486;11.104;2022-09-21T00:49:34;3.80;;;3.40;;
22665;SDS011;11499;49.486;11.104;2022-09-21T00:52:02;4.13;;;3.47;;
22665;SDS011;11499;49.486;11.104;2022-09-21T00:54:30;4.00;;;3.30;;
22665;SDS011;11499;49.486;11.104;2022-09-21T00:57:04;3.40;;;2.90;;
22665;SDS011;11499;49.486;11.104;2022-09-21T01:02:08;3.60;;;3.30;;
22665;SDS011;11499;49.486;11.104;2022-09-21T01:04:33;3.60;;;3.10;;
22665;SDS011;11499;49.486;11.104;2022-09-21T01:07:01;3.63;;;3.10;;
22665;SDS011;11499;49.486;11.104;2022-09-21T01:09:30;4.40;;;3.30;;
22665;SDS011;11499;49.486;11.104;2022-09-21T01:14:48;3.53;;;2.83;;
22665;SDS011;11499;49.486;11.104;2022-09-21T01:17:35;3.93;;;2.57;;
22665;SDS011;11499;49.486;11.104;2022-09-21T01:23:14;4.80;;;3.00;;
22665;SDS011;11499;49.486;11.104;2022-09-21T01:28:55;8.07;;;3.10;;
22665;SDS011;11499;49.486;11.104;2022-09-21T01:31:24;3.73;;;3.10;;
22665;SDS011;11499;49.486;11.104;2022-09-21T01:33:57;4.13;;;3.00;;
22665;SDS011;11499;49.486;11.104;2022-09-21T01:36:29;3.30;;;3.00;;
22665;SDS011;11499;49.486;11.104;2022-09-21T01:38:57;3.60;;;2.90;;
22665;SDS011;11499;49.486;11.104;2022-09-21T01:41:30;2.90;;;2.40;;
22665;SDS011;11499;49.486;11.104;2022-09-21T01:43:57;3.00;;;2.60;;
22665;SDS011;11499;49.486;11.104;2022-09-21T01:46:35;3.10;;;2.77;;
22665;SDS011;11499;49.486;11.104;2022-09-21T01:49:03;3.07;;;2.73;;
22665;SDS011;11499;49.486;11.104;2022-09-21T01:51:34;2.60;;;2.37;;
22665;SDS011;11499;49.486;11.104;2022-09-21T01:56:38;2.30;;;2.10;;
22665;SDS011;11499;49.486;11.104;2022-09-21T01:59:16;2.87;;;2.40;;
22665;SDS011;11499;49.486;11.104;2022-09-21T02:02:03;2.20;;;2.00;;
22665;SDS011;11499;49.486;11.104;2022-09-21T02:04:35;2.60;;;2.40;;
22665;SDS011;11499;49.486;11.104;2022-09-21T02:07:01;2.33;;;2.13;;
22665;SDS011;11499;49.486;11.104;2022-09-21T02:09:27;2.47;;;2.27;;
22665;SDS011;11499;49.486;11.104;2022-09-21T02:11:53;2.53;;;2.20;;
22665;SDS011;11499;49.486;11.104;2022-09-21T02:14:20;2.50;;;2.30;;
22665;SDS011;11499;49.486;11.104;2022-09-21T02:17:00;2.20;;;2.00;;
22665;SDS011;11499;49.486;11.104;2022-09-21T02:19:37;2.70;;;2.20;;
22665;SDS011;11499;49.486;11.104;2022-09-21T02:24:03;2.73;;;1.97;;
22665;SDS011;11499;49.486;11.104;2022-09-21T02:26:39;1.80;;;1.70;;
22665;SDS011;11499;49.486;11.104;2022-09-21T02:37:46;3.13;;;2.00;;
22665;SDS011;11499;49.486;11.104;2022-09-21T02:40:39;1.80;;;1.70;;
22665;SDS011;11499;49.486;11.104;2022-09-21T02:43:25;2.37;;;2.10;;
22665;SDS011;11499;49.486;11.104;2022-09-21T02:49:04;3.17;;;1.60;;
22665;SDS011;11499;49.486;11.104;2022-09-21T02:51:35;4.67;;;2.03;;
22665;SDS011;11499;49.486;11.104;2022-09-21T02:54:11;2.20;;;1.90;;
22665;SDS011;11499;49.486;11.104;2022-09-21T02:56:39;2.33;;;1.60;;
22665;SDS011;11499;49.486;11.104;2022-09-21T02:59:05;3.27;;;2.27;;
22665;SDS011;11499;49.486;11.104;2022-09-21T03:01:32;4.77;;;2.13;;
22665;SDS011;11499;49.486;11.104;2022-09-21T03:03:58;4.20;;;2.17;;
22665;SDS011;11499;49.486;11.104;2022-09-21T03:06:24;7.80;;;2.47;;
22665;SDS011;11499;49.486;11.104;2022-09-21T03:08:50;7.13;;;2.27;;
22665;SDS011;11499;49.486;11.104;2022-09-21T03:11:19;8.43;;;2.57;;
22665;SDS011;11499;49.486;11.104;2022-09-21T03:16:28;5.17;;;2.60;;
22665;SDS011;11499;49.486;11.104;2022-09-21T03:18:53;11.10;;;3.20;;
22665;SDS011;11499;49.486;11.104;2022-09-21T03:21:19;10.13;;;2.80;;
22665;SDS011;11499;49.486;11.104;2022-09-21T03:23:45;8.77;;;2.63;;
22665;SDS011;11499;49.486;11.104;2022-09-21T03:26:11;14.77;;;3.37;;
22665;SDS011;11499;49.486;11.104;2022-09-21T03:28:37;5.87;;;2.83;;
22665;SDS011;11499;49.486;11.104;2022-09-21T03:31:02;9.00;;;2.93;;
22665;SDS011;11499;49.486;11.104;2022-09-21T03:33:28;14.37;;;3.40;;
22665;SDS011;11499;49.486;11.104;2022-09-21T03:35:53;20.33;;;3.47;;
22665;SDS011;11499;49.486;11.104;2022-09-21T03:38:19;19.83;;;3.80;;
22665;SDS011;11499;49.486;11.104;2022-09-21T03:40:45;17.40;;;4.43;;
22665;SDS011;11499;49.486;11.104;2022-09-21T03:43:12;24.17;;;4.50;;
22665;SDS011;11499;49.486;11.104;2022-09-21T03:47:09;32.10;;;4.97;;
22665;SDS011;11499;49.486;11.104;2022-09-21T03:49:35;27.63;;;4.40;;
22665;SDS011;11499;49.486;11.104;2022-09-21T03:52:01;18.87;;;4.47;;
22665;SDS011;11499;49.486;11.104;2022-09-21T03:54:27;29.53;;;4.23;;
22665;SDS011;11499;49.486;11.104;2022-09-21T03:56:52;31.13;;;5.03;;
22665;SDS011;11499;49.486;11.104;2022-09-21T03:59:18;11.97;;;3.90;;
22665;SDS011;11499;49.486;11.104;2022-09-21T04:01:44;8.70;;;3.57;;
22665;SDS011;11499;49.486;11.104;2022-09-21T04:04:10;15.70;;;3.93;;
22665;SDS011;11499;49.486;11.104;2022-09-21T04:06:35;18.57;;;4.57;;
22665;SDS011;11499;49.486;11.104;2022-09-21T04:09:01;12.27;;;3.97;;
22665;SDS011;11499;49.486;11.104;2022-09-21T04:14:09;26.77;;;4.40;;
22665;SDS011;11499;49.486;11.104;2022-09-21T04:16:36;34.77;;;5.57;;
22665;SDS011;11499;49.486;11.104;2022-09-21T04:19:01;25.33;;;5.20;;
22665;SDS011;11499;49.486;11.104;2022-09-21T04:21:27;28.60;;;5.40;;
22665;SDS011;11499;49.486;11.104;2022-09-21T04:23:53;17.57;;;5.10;;
22665;SDS011;11499;49.486;11.104;2022-09-21T04:26:26;15.90;;;4.97;;
22665;SDS011;11499;49.486;11.104;2022-09-21T04:28:54;15.63;;;5.00;;
22665;SDS011;11499;49.486;11.104;2022-09-21T04:31:20;13.13;;;4.50;;
22665;SDS011;11499;49.486;11.104;2022-09-21T04:33:50;10.20;;;4.13;;
22665;SDS011;11499;49.486;11.104;2022-09-21T04:36:16;18.73;;;4.53;;
22665;SDS011;11499;49.486;11.104;2022-09-21T04:40:31;21.17;;;4.50;;
22665;SDS011;11499;49.486;11.104;2022-09-21T04:42:57;29.27;;;4.50;;
22665;SDS011;11499;49.486;11.104;2022-09-21T04:45:22;17.27;;;4.20;;
22665;SDS011;11499;49.486;11.104;2022-09-21T04:47:48;15.70;;;3.90;;
22665;SDS011;11499;49.486;11.104;2022-09-21T04:50:14;13.50;;;3.60;;
22665;SDS011;11499;49.486;11.104;2022-09-21T04:52:40;23.77;;;3.87;;
22665;SDS011;11499;49.486;11.104;2022-09-21T04:55:06;19.23;;;3.70;;
22665;SDS011;11499;49.486;11.104;2022-09-21T04:57:32;26.17;;;3.80;;
22665;SDS011;11499;49.486;11.104;2022-09-21T04:59:58;15.80;;;4.50;;
22665;SDS011;11499;49.486;11.104;2022-09-21T05:02:23;19.30;;;4.60;;
22665;SDS011;11499;49.486;11.104;2022-09-21T05:07:53;41.40;;;7.30;;
22665;SDS011;11499;49.486;11.104;2022-09-21T05:10:19;71.77;;;8.23;;
22665;SDS011;11499;49.486;11.104;2022-09-21T05:12:44;87.67;;;9.40;;
22665;SDS011;11499;49.486;11.104;2022-09-21T05:15:10;61.50;;;8.17;;
22665;SDS011;11499;49.486;11.104;2022-09-21T05:17:36;41.17;;;8.17;;
22665;SDS011;11499;49.486;11.104;2022-09-21T05:20:02;64.07;;;7.70;;
22665;SDS011;11499;49.486;11.104;2022-09-21T05:22:28;54.07;;;7.93;;
22665;SDS011;11499;49.486;11.104;2022-09-21T05:24:53;26.77;;;6.63;;
22665;SDS011;11499;49.486;11.104;2022-09-21T05:27:19;26.50;;;5.57;;
22665;SDS011;11499;49.486;11.104;2022-09-21T05:29:45;25.23;;;5.93;;
22665;SDS011;11499;49.486;11.104;2022-09-21T05:40:21;48.23;;;5.83;;
22665;SDS011;11499;49.486;11.104;2022-09-21T05:42:47;34.40;;;5.97;;
22665;SDS011;11499;49.486;11.104;2022-09-21T05:45:13;39.37;;;6.70;;
22665;SDS011;11499;49.486;11.104;2022-09-21T05:47:47;20.60;;;5.90;;
22665;SDS011;11499;49.486;11.104;2022-09-21T05:50:27;20.77;;;9.57;;
22665;SDS011;11499;49.486;11.104;2022-09-21T05:53:17;10.47;;;4.97;;
22665;SDS011;11499;49.486;11.104;2022-09-21T05:56:28;9.13;;;3.63;;
22665;SDS011;11499;49.486;11.104;2022-09-21T06:04:19;23.03;;;2.80;;
22665;SDS011;11499;49.486;11.104;2022-09-21T06:06:44;3.97;;;1.90;;
22665;SDS011;11499;49.486;11.104;2022-09-21T06:09:10;16.60;;;2.33;;
22665;SDS011;11499;49.486;11.104;2022-09-21T06:11:36;23.93;;;3.30;;
22665;SDS011;11499;49.486;11.104;2022-09-21T06:14:01;11.67;;;2.30;;
22665;SDS011;11499;49.486;11.104;2022-09-21T06:16:35;12.17;;;2.33;;
22665;SDS011;11499;49.486;11.104;2022-09-21T06:19:01;12.93;;;2.83;;
22665;SDS011;11499;49.486;11.104;2022-09-21T06:21:27;15.93;;;2.50;;
22665;SDS011;11499;49.486;11.104;2022-09-21T06:23:52;14.10;;;3.60;;
22665;SDS011;11499;49.486;11.104;2022-09-21T06:29:07;21.63;;;3.07;;
22665;SDS011;11499;49.486;11.104;2022-09-21T06:31:32;31.97;;;2.80;;
22665;SDS011;11499;49.486;11.104;2022-09-21T06:33:59;16.70;;;3.03;;
22665;SDS011;11499;49.486;11.104;2022-09-21T06:36:24;36.10;;;3.80;;
22665;SDS011;11499;49.486;11.104;2022-09-21T06:38:50;80.83;;;5.60;;
22665;SDS011;11499;49.486;11.104;2022-09-21T06:41:15;22.30;;;3.00;;
22665;SDS011;11499;49.486;11.104;2022-09-21T06:43:41;25.77;;;2.97;;
22665;SDS011;11499;49.486;11.104;2022-09-21T06:46:06;17.40;;;3.30;;
22665;SDS011;11499;49.486;11.104;2022-09-21T06:48:32;19.63;;;2.83;;
22665;SDS011;11499;49.486;11.104;2022-09-21T06:50:59;18.20;;;3.03;;
22665;SDS011;11499;49.486;11.104;2022-09-21T06:56:15;18.77;;;3.50;;
22665;SDS011;11499;49.486;11.104;2022-09-21T06:58:40;4.53;;;2.80;;
22665;SDS011;11499;49.486;11.104;2022-09-21T07:01:09;11.10;;;3.40;;
22665;SDS011;11499;49.486;11.104;2022-09-21T07:03:37;25.00;;;3.90;;
22665;SDS011;11499;49.486;11.104;2022-09-21T07:06:03;22.07;;;3.67;;
22665;SDS011;11499;49.486;11.104;2022-09-21T07:08:30;11.50;;;3.97;;
22665;SDS011;11499;49.486;11.104;2022-09-21T07:10:56;17.70;;;4.17;;
22665;SDS011;11499;49.486;11.104;2022-09-21T07:13:26;6.57;;;3.20;;
22665;SDS011;11499;49.486;11.104;2022-09-21T07:15:53;12.47;;;3.80;;
22665;SDS011;11499;49.486;11.104;2022-09-21T07:18:19;22.70;;;4.30;;
22665;SDS011;11499;49.486;11.104;2022-09-21T07:20:45;5.57;;;3.80;;
22665;SDS011;11499;49.486;11.104;2022-09-21T07:23:12;5.53;;;3.53;;
22665;SDS011;11499;49.486;11.104;2022-09-21T07:27:35;3.27;;;2.97;;
22665;SDS011;11499;49.486;11.104;2022-09-21T07:30:01;7.27;;;3.50;;
22665;SDS011;11499;49.486;11.104;2022-09-21T07:32:28;13.40;;;3.50;;
22665;SDS011;11499;49.486;11.104;2022-09-21T07:34:54;14.40;;;4.07;;
22665;SDS011;11499;49.486;11.104;2022-09-21T07:37:21;8.90;;;3.77;;
22665;SDS011;11499;49.486;11.104;2022-09-21T07:39:48;10.33;;;3.93;;
22665;SDS011;11499;49.486;11.104;2022-09-21T07:42:14;25.87;;;4.27;;
22665;SDS011;11499;49.486;11.104;2022-09-21T07:44:40;75.77;;;6.60;;
22665;SDS011;11499;49.486;11.104;2022-09-21T07:47:06;6.83;;;3.23;;
22665;SDS011;11499;49.486;11.104;2022-09-21T07:52:38;18.93;;;4.00;;
22665;SDS011;11499;49.486;11.104;2022-09-21T07:55:04;19.90;;;3.60;;
22665;SDS011;11499;49.486;11.104;2022-09-21T07:57:29;51.53;;;5.00;;
22665;SDS011;11499;49.486;11.104;2022-09-21T08:00:13;34.97;;;4.47;;
22665;SDS011;11499;49.486;11.104;2022-09-21T08:02:39;31.47;;;4.67;;
22665;SDS011;11499;49.486;11.104;2022-09-21T08:05:05;20.87;;;3.87;;
22665;SDS011;11499;49.486;11.104;2022-09-21T08:07:30;8.20;;;3.30;;
22665;SDS011;11499;49.486;11.104;2022-09-21T08:09:56;4.33;;;3.37;;
22665;SDS011;11499;49.486;11.104;2022-09-21T08:12:22;7.00;;;3.87;;
22665;SDS011;11499;49.486;11.104;2022-09-21T08:14:47;7.80;;;4.07;;
22665;SDS011;11499;49.486;11.104;2022-09-21T08:17:13;5.83;;;3.83;;
22665;SDS011;11499;49.486;11.104;2022-09-21T08:21:54;8.87;;;4.23;;
22665;SDS011;11499;49.486;11.104;2022-09-21T08:24:19;4.60;;;4.20;;
22665;SDS011;11499;49.486;11.104;2022-09-21T08:26:45;4.10;;;3.70;;
22665;SDS011;11499;49.486;11.104;2022-09-21T08:29:10;4.10;;;3.70;;
22665;SDS011;11499;49.486;11.104;2022-09-21T08:31:38;3.67;;;3.37;;
22665;SDS011;11499;49.486;11.104;2022-09-21T08:34:04;4.23;;;3.60;;
22665;SDS011;11499;49.486;11.104;2022-09-21T08:36:30;3.70;;;3.40;;
22665;SDS011;11499;49.486;11.104;2022-09-21T08:38:55;3.77;;;3.47;;
22665;SDS011;11499;49.486;11.104;2022-09-21T08:41:22;3.77;;;3.47;;
22665;SDS011;11499;49.486;11.104;2022-09-21T08:43:56;3.70;;;3.40;;
22665;SDS011;11499;49.486;11.104;2022-09-21T08:49:29;4.30;;;3.17;;
22665;SDS011;11499;49.486;11.104;2022-09-21T08:51:59;3.63;;;3.33;;
22665;SDS011;11499;49.486;11.104;2022-09-21T08:54:43;4.20;;;3.13;;
22665;SDS011;11499;49.486;11.104;2022-09-21T08:57:14;4.00;;;3.33;;
22665;SDS011;11499;49.486;11.104;2022-09-21T08:59:46;3.90;;;3.57;;
22665;SDS011;11499;49.486;11.104;2022-09-21T09:02:21;4.07;;;3.67;;
22665;SDS011;11499;49.486;11.104;2022-09-21T09:08:22;3.30;;;3.00;;
22665;SDS011;11499;49.486;11.104;2022-09-21T09:13:34;5.83;;;3.73;;
22665;SDS011;11499;49.486;11.104;2022-09-21T09:19:17;4.57;;;3.87;;
22665;SDS011;11499;49.486;11.104;2022-09-21T09:22:01;4.63;;;4.23;;
22665;SDS011;11499;49.486;11.104;2022-09-21T09:24:37;4.43;;;4.13;;
22665;SDS011;11499;49.486;11.104;2022-09-21T09:27:18;5.47;;;4.10;;
22665;SDS011;11499;49.486;11.104;2022-09-21T09:32:55;4.70;;;4.30;;
22665;SDS011;11499;49.486;11.104;2022-09-21T09:35:48;5.40;;;4.90;;
22665;SDS011;11499;49.486;11.104;2022-09-21T09:43:43;5.20;;;4.80;;
22665;SDS011;11499;49.486;11.104;2022-09-21T09:46:35;4.83;;;4.33;;
22665;SDS011;11499;49.486;11.104;2022-09-21T09:49:29;6.37;;;4.00;;
22665;SDS011;11499;49.486;11.104;2022-09-21T09:51:58;4.60;;;4.20;;
22665;SDS011;11499;49.486;11.104;2022-09-21T09:54:25;4.20;;;3.73;;
22665;SDS011;11499;49.486;11.104;2022-09-21T09:56:52;3.60;;;3.30;;
22665;SDS011;11499;49.486;11.104;2022-09-21T09:59:33;4.57;;;3.60;;
22665;SDS011;11499;49.486;11.104;2022-09-21T10:06:29;4.33;;;3.83;;
22665;SDS011;11499;49.486;11.104;2022-09-21T10:08:57;4.70;;;4.40;;
22665;SDS011;11499;49.486;11.104;2022-09-21T10:11:22;4.93;;;3.70;;
22665;SDS011;11499;49.486;11.104;2022-09-21T10:14:07;5.63;;;3.90;;
22665;SDS011;11499;49.486;11.104;2022-09-21T10:16:39;5.37;;;4.87;;
22665;SDS011;11499;49.486;11.104;2022-09-21T10:19:05;5.13;;;4.63;;
22665;SDS011;11499;49.486;11.104;2022-09-21T10:21:41;7.03;;;6.37;;
22665;SDS011;11499;49.486;11.104;2022-09-21T10:24:19;7.43;;;6.67;;
22665;SDS011;11499;49.486;11.104;2022-09-21T10:26:51;7.53;;;6.80;;
22665;SDS011;11499;49.486;11.104;2022-09-21T10:31:22;6.20;;;5.67;;
22665;SDS011;11499;49.486;11.104;2022-09-21T10:36:39;8.97;;;8.17;;
22665;SDS011;11499;49.486;11.104;2022-09-21T10:39:09;9.37;;;8.20;;
22665;SDS011;11499;49.486;11.104;2022-09-21T10:41:36;7.90;;;7.20;;
22665;SDS011;11499;49.486;11.104;2022-09-21T10:44:02;8.67;;;6.90;;
22665;SDS011;11499;49.486;11.104;2022-09-21T10:46:31;6.40;;;5.73;;
22665;SDS011;11499;49.486;11.104;2022-09-21T10:49:01;6.37;;;5.40;;
22665;SDS011;11499;49.486;11.104;2022-09-21T10:51:28;6.73;;;5.83;;
22665;SDS011;11499;49.486;11.104;2022-09-21T10:53:54;6.40;;;5.50;;
22665;SDS011;11499;49.486;11.104;2022-09-21T10:58:36;4.27;;;3.87;;
22665;SDS011;11499;49.486;11.104;2022-09-21T11:01:10;5.57;;;4.00;;
22665;SDS011;11499;49.486;11.104;2022-09-21T11:03:50;6.03;;;3.53;;
22665;SDS011;11499;49.486;11.104;2022-09-21T11:06:30;4.30;;;3.10;;
22665;SDS011;11499;49.486;11.104;2022-09-21T11:09:37;3.23;;;2.93;;
22665;SDS011;11499;49.486;11.104;2022-09-21T11:11:59;5.33;;;3.67;;
22665;SDS011;11499;49.486;11.104;2022-09-21T11:14:42;3.27;;;2.87;;
22665;SDS011;11499;49.486;11.104;2022-09-21T11:25:55;2.00;;;1.80;;
22665;SDS011;11499;49.486;11.104;2022-09-21T11:28:38;2.47;;;2.13;;
22665;SDS011;11499;49.486;11.104;2022-09-21T11:31:40;2.70;;;2.28;;
22665;SDS011;11499;49.486;11.104;2022-09-21T11:42:20;1.73;;;1.63;;
22665;SDS011;11499;49.486;11.104;2022-09-21T11:44:59;2.33;;;2.10;;
22665;SDS011;11499;49.486;11.104;2022-09-21T11:47:39;2.45;;;1.83;;
22665;SDS011;11499;49.486;11.104;2022-09-21T11:54:37;2.40;;;1.90;;
22665;SDS011;11499;49.486;11.104;2022-09-21T11:57:20;1.90;;;1.70;;
22665;SDS011;11499;49.486;11.104;2022-09-21T12:00:07;2.60;;;1.83;;
22665;SDS011;11499;49.486;11.104;2022-09-21T12:08:13;3.00;;;1.80;;
22665;SDS011;11499;49.486;11.104;2022-09-21T12:18:48;1.40;;;1.30;;
22665;SDS011;11499;49.486;11.104;2022-09-21T12:21:25;2.50;;;1.50;;
22665;SDS011;11499;49.486;11.104;2022-09-21T12:23:55;1.80;;;1.70;;
22665;SDS011;11499;49.486;11.104;2022-09-21T12:26:27;2.80;;;1.87;;
22665;SDS011;11499;49.486;11.104;2022-09-21T12:29:11;1.87;;;1.63;;
22665;SDS011;11499;49.486;11.104;2022-09-21T12:31:54;1.80;;;1.70;;
22665;SDS011;11499;49.486;11.104;2022-09-21T12:34:43;2.77;;;1.80;;
22665;SDS011;11499;49.486;11.104;2022-09-21T12:37:17;1.60;;;1.50;;
22665;SDS011;11499;49.486;11.104;2022-09-21T12:40:14;1.77;;;1.67;;
22665;SDS011;11499;49.486;11.104;2022-09-21T12:45:16;1.60;;;1.50;;
22665;SDS011;11499;49.486;11.104;2022-09-21T12:47:55;2.33;;;1.60;;
22665;SDS011;11499;49.486;11.104;2022-09-21T12:50:26;2.03;;;1.83;;
22665;SDS011;11499;49.486;11.104;2022-09-21T12:53:03;2.87;;;1.90;;
22665;SDS011;11499;49.486;11.104;2022-09-21T12:55:51;2.43;;;1.93;;
22665;SDS011;11499;49.486;11.104;2022-09-21T12:58:55;1.80;;;1.70;;
22665;SDS011;11499;49.486;11.104;2022-09-21T13:01:50;1.50;;;1.40;;
22665;SDS011;11499;49.486;11.104;2022-09-21T13:07:25;2.20;;;2.00;;
22665;SDS011;11499;49.486;11.104;2022-09-21T13:10:57;5.00;;;4.63;;
22665;SDS011;11499;49.486;11.104;2022-09-21T13:16:28;1.40;;;1.30;;
22665;SDS011;11499;49.486;11.104;2022-09-21T13:19:41;2.03;;;1.13;;
22665;SDS011;11499;49.486;11.104;2022-09-21T13:22:09;1.50;;;1.40;;
22665;SDS011;11499;49.486;11.104;2022-09-21T13:24:43;2.15;;;1.30;;
22665;SDS011;11499;49.486;11.104;2022-09-21T13:27:11;1.35;;;1.25;;
22665;SDS011;11499;49.486;11.104;2022-09-21T13:29:37;2.13;;;1.20;;
22665;SDS011;11499;49.486;11.104;2022-09-21T13:34:36;1.20;;;1.02;;
22665;SDS011;11499;49.486;11.104;2022-09-21T13:41:56;1.83;;;1.47;;
22665;SDS011;11499;49.486;11.104;2022-09-21T13:44:36;1.67;;;1.20;;
22665;SDS011;11499;49.486;11.104;2022-09-21T13:47:04;1.83;;;1.10;;
22665;SDS011;11499;49.486;11.104;2022-09-21T13:49:37;2.50;;;1.20;;
22665;SDS011;11499;49.486;11.104;2022-09-21T14:00:07;2.10;;;1.17;;
22665;SDS011;11499;49.486;11.104;2022-09-21T14:06:55;2.80;;;1.23;;
22665;SDS011;11499;49.486;11.104;2022-09-21T14:09:26;2.17;;;1.38;;
22665;SDS011;11499;49.486;11.104;2022-09-21T14:11:59;1.63;;;1.23;;
22665;SDS011;11499;49.486;11.104;2022-09-21T14:14:29;3.20;;;1.60;;
22665;SDS011;11499;49.486;11.104;2022-09-21T14:16:58;2.20;;;1.17;;
22665;SDS011;11499;49.486;11.104;2022-09-21T14:24:38;1.60;;;1.50;;
22665;SDS011;11499;49.486;11.104;2022-09-21T14:27:26;3.45;;;1.40;;
22665;SDS011;11499;49.486;11.104;2022-09-21T14:32:52;2.10;;;1.50;;
22665;SDS011;11499;49.486;11.104;2022-09-21T14:35:21;1.73;;;1.25;;
22665;SDS011;11499;49.486;11.104;2022-09-21T14:37:49;1.40;;;1.30;;
22665;SDS011;11499;49.486;11.104;2022-09-21T14:40:24;2.53;;;1.17;;
22665;SDS011;11499;49.486;11.104;2022-09-21T14:42:53;2.77;;;1.60;;
22665;SDS011;11499;49.486;11.104;2022-09-21T14:45:24;2.10;;;1.80;;
22665;SDS011;11499;49.486;11.104;2022-09-21T14:48:07;3.10;;;1.70;;
22665;SDS011;11499;49.486;11.104;2022-09-21T14:51:00;2.27;;;1.50;;
22665;SDS011;11499;49.486;11.104;2022-09-21T15:02:30;3.00;;;1.80;;
22665;SDS011;11499;49.486;11.104;2022-09-21T15:05:02;1.70;;;1.40;;
22665;SDS011;11499;49.486;11.104;2022-09-21T15:10:49;1.33;;;1.23;;
22665;SDS011;11499;49.486;11.104;2022-09-21T15:13:35;2.33;;;1.33;;
22665;SDS011;11499;49.486;11.104;2022-09-21T15:16:34;1.40;;;1.30;;
22665;SDS011;11499;49.486;11.104;2022-09-21T15:24:34;1.80;;;1.30;;
22665;SDS011;11499;49.486;11.104;2022-09-21T15:27:06;2.00;;;1.23;;
22665;SDS011;11499;49.486;11.104;2022-09-21T15:29:42;1.55;;;1.08;;
22665;SDS011;11499;49.486;11.104;2022-09-21T15:32:22;2.05;;;1.67;;
22665;SDS011;11499;49.486;11.104;2022-09-21T15:34:56;1.40;;;1.10;;
22665;SDS011;11499;49.486;11.104;2022-09-21T15:37:25;1.60;;;1.23;;
22665;SDS011;11499;49.486;11.104;2022-09-21T15:39:58;1.30;;;1.20;;
22665;SDS011;11499;49.486;11.104;2022-09-21T15:42:28;1.43;;;1.23;;
22665;SDS011;11499;49.486;11.104;2022-09-21T15:45:00;1.73;;;1.63;;
22665;SDS011;11499;49.486;11.104;2022-09-21T15:50:16;2.00;;;1.53;;
22665;SDS011;11499;49.486;11.104;2022-09-21T15:52:45;2.03;;;1.47;;
22665;SDS011;11499;49.486;11.104;2022-09-21T15:55:17;2.50;;;1.17;;
22665;SDS011;11499;49.486;11.104;2022-09-21T15:57:48;1.03;;;0.90;;
22665;SDS011;11499;49.486;11.104;2022-09-21T16:00:17;4.07;;;2.70;;
22665;SDS011;11499;49.486;11.104;2022-09-21T16:02:49;1.37;;;1.27;;
22665;SDS011;11499;49.486;11.104;2022-09-21T16:05:28;2.47;;;1.30;;
22665;SDS011;11499;49.486;11.104;2022-09-21T16:08:15;2.57;;;1.50;;
22665;SDS011;11499;49.486;11.104;2022-09-21T16:10:50;1.83;;;1.30;;
22665;SDS011;11499;49.486;11.104;2022-09-21T16:16:03;1.23;;;1.13;;
22665;SDS011;11499;49.486;11.104;2022-09-21T16:18:32;1.13;;;1.00;;
22665;SDS011;11499;49.486;11.104;2022-09-21T16:21:12;1.10;;;0.90;;
22665;SDS011;11499;49.486;11.104;2022-09-21T16:23:44;1.53;;;1.20;;
22665;SDS011;11499;49.486;11.104;2022-09-21T16:26:19;2.10;;;1.50;;
22665;SDS011;11499;49.486;11.104;2022-09-21T16:28:47;1.13;;;1.03;;
22665;SDS011;11499;49.486;11.104;2022-09-21T16:31:27;1.50;;;1.27;;
22665;SDS011;11499;49.486;11.104;2022-09-21T16:33:56;1.40;;;1.30;;
22665;SDS011;11499;49.486;11.104;2022-09-21T16:38:49;1.90;;;1.20;;
22665;SDS011;11499;49.486;11.104;2022-09-21T16:43:38;1.90;;;1.03;;
22665;SDS011;11499;49.486;11.104;2022-09-21T16:46:11;1.20;;;1.10;;
22665;SDS011;11499;49.486;11.104;2022-09-21T16:48:37;1.40;;;1.30;;
22665;SDS011;11499;49.486;11.104;2022-09-21T16:51:04;1.90;;;1.43;;
22665;SDS011;11499;49.486;11.104;2022-09-21T16:53:35;2.03;;;1.73;;
22665;SDS011;11499;49.486;11.104;2022-09-21T16:56:01;5.00;;;2.10;;
22665;SDS011;11499;49.486;11.104;2022-09-21T16:58:27;4.27;;;1.73;;
22665;SDS011;11499;49.486;11.104;2022-09-21T17:00:52;6.70;;;2.57;;
22665;SDS011;11499;49.486;11.104;2022-09-21T17:03:18;5.83;;;5.23;;
22665;SDS011;11499;49.486;11.104;2022-09-21T17:05:44;13.57;;;11.20;;
22665;SDS011;11499;49.486;11.104;2022-09-21T17:10:49;5.50;;;4.80;;
22665;SDS011;11499;49.486;11.104;2022-09-21T17:13:14;5.60;;;5.10;;
22665;SDS011;11499;49.486;11.104;2022-09-21T17:15:42;4.33;;;3.93;;
22665;SDS011;11499;49.486;11.104;2022-09-21T17:18:11;4.53;;;3.27;;
22665;SDS011;11499;49.486;11.104;2022-09-21T17:20:39;6.13;;;4.20;;
22665;SDS011;11499;49.486;11.104;2022-09-21T17:23:06;4.10;;;3.47;;
22665;SDS011;11499;49.486;11.104;2022-09-21T17:25:33;2.63;;;2.40;;
22665;SDS011;11499;49.486;11.104;2022-09-21T17:28:00;2.30;;;1.70;;
22665;SDS011;11499;49.486;11.104;2022-09-21T17:30:26;2.83;;;1.70;;
22665;SDS011;11499;49.486;11.104;2022-09-21T17:32:53;3.23;;;1.50;;
22665;SDS011;11499;49.486;11.104;2022-09-21T17:37:34;3.10;;;2.80;;
22665;SDS011;11499;49.486;11.104;2022-09-21T17:40:02;1.63;;;1.43;;
22665;SDS011;11499;49.486;11.104;2022-09-21T17:42:28;2.70;;;1.70;;
22665;SDS011;11499;49.486;11.104;2022-09-21T17:45:10;2.87;;;1.70;;
22665;SDS011;11499;49.486;11.104;2022-09-21T17:47:49;2.43;;;1.90;;
22665;SDS011;11499;49.486;11.104;2022-09-21T17:52:51;2.17;;;1.97;;
22665;SDS011;11499;49.486;11.104;2022-09-21T17:55:37;3.27;;;2.30;;
22665;SDS011;11499;49.486;11.104;2022-09-21T18:02:51;10.27;;;7.27;;
22665;SDS011;11499;49.486;11.104;2022-09-21T18:05:24;8.60;;;5.57;;
22665;SDS011;11499;49.486;11.104;2022-09-21T18:07:52;9.30;;;3.90;;
22665;SDS011;11499;49.486;11.104;2022-09-21T18:10:18;12.33;;;7.93;;
22665;SDS011;11499;49.486;11.104;2022-09-21T18:15:25;7.97;;;3.20;;
22665;SDS011;11499;49.486;11.104;2022-09-21T18:18:17;5.97;;;3.87;;
22665;SDS011;11499;49.486;11.104;2022-09-21T18:21:04;6.50;;;3.90;;
22665;SDS011;11499;49.486;11.104;2022-09-21T18:23:47;5.80;;;3.87;;
22665;SDS011;11499;49.486;11.104;2022-09-21T18:29:30;16.33;;;12.90;;
22665;SDS011;11499;49.486;11.104;2022-09-21T18:32:01;6.60;;;5.73;;
22665;SDS011;11499;49.486;11.104;2022-09-21T18:49:10;2.57;;;1.47;;
22665;SDS011;11499;49.486;11.104;2022-09-21T18:56:22;2.57;;;2.20;;